createdAt,value
2022-10-17T00:01:02.137Z,4.47
2022-10-17T00:03:29.111Z,3.88
2022-10-17T00:05:57.922Z,3.97
2022-10-17T00:08:25.716Z,3.35
2022-10-17T00:11:01.380Z,3.45
2022-10-17T00:13:28.755Z,3.05
2022-10-17T00:15:55.867Z,2.70
2022-10-17T00:18:23.082Z,2.97
2022-10-17T00:20:50.571Z,2.90
2022-10-17T00:23:17.727Z,3.38
2022-10-17T00:25:44.713Z,3.00
2022-10-17T00:28:12.761Z,2.88
2022-10-17T00:30:40.422Z,2.65
2022-10-17T00:33:07.782Z,3.05
2022-10-17T00:35:34.637Z,2.67
2022-10-17T00:38:01.545Z,2.80
2022-10-17T00:40:28.505Z,2.72
2022-10-17T00:42:55.391Z,3.13
2022-10-17T00:45:23.890Z,3.67
2022-10-17T00:47:59.491Z,3.05
2022-10-17T00:50:26.818Z,4.10
2022-10-17T00:52:54.219Z,3.03
2022-10-17T00:55:31.524Z,3.00
2022-10-17T00:58:02.542Z,2.85
2022-10-17T01:00:29.450Z,3.00
2022-10-17T01:02:56.301Z,3.13
2022-10-17T01:05:23.307Z,2.63
2022-10-17T01:07:52.542Z,3.00
2022-10-17T01:10:20.713Z,2.72
2022-10-17T01:12:59.216Z,2.53
2022-10-17T01:15:53.768Z,2.15
2022-10-17T01:18:49.843Z,2.38
2022-10-17T01:21:31.985Z,2.58
2022-10-17T01:24:36.946Z,2.40
2022-10-17T01:27:29.295Z,2.58
2022-10-17T01:30:11.166Z,2.30
2022-10-17T01:32:49.760Z,2.88
2022-10-17T01:35:30.864Z,2.72
2022-10-17T01:38:11.698Z,2.80
2022-10-17T01:41:15.121Z,2.40
2022-10-17T01:43:49.680Z,2.55
2022-10-17T01:46:51.447Z,3.15
2022-10-17T01:49:24.410Z,2.67
2022-10-17T01:52:15.095Z,2.30
2022-10-17T01:55:14.135Z,2.90
2022-10-17T01:57:56.295Z,2.55
2022-10-17T02:00:26.616Z,2.72
2022-10-17T02:02:58.808Z,2.53
2022-10-17T02:05:31.718Z,2.75
2022-10-17T02:07:58.599Z,2.60
2022-10-17T02:10:49.951Z,2.45
2022-10-17T02:13:19.791Z,2.67
2022-10-17T02:16:03.188Z,2.70
2022-10-17T02:18:32.847Z,2.25
2022-10-17T02:21:12.281Z,2.38
2022-10-17T02:23:52.066Z,2.42
2022-10-17T02:26:39.057Z,2.70
2022-10-17T02:29:19.520Z,2.53
2022-10-17T02:31:51.678Z,2.13
2022-10-17T02:34:32.350Z,2.50
2022-10-17T02:37:02.190Z,2.80
2022-10-17T02:39:30.560Z,2.65
2022-10-17T02:42:02.048Z,2.38
2022-10-17T02:44:30.619Z,2.28
2022-10-17T02:47:09.281Z,2.10
2022-10-17T02:49:41.951Z,2.53
2022-10-17T02:52:22.706Z,2.22
2022-10-17T02:55:11.653Z,2.08
2022-10-17T02:57:46.181Z,2.30
2022-10-17T03:00:15.463Z,2.22
2022-10-17T03:02:45.760Z,2.42
2022-10-17T03:05:16.710Z,2.53
2022-10-17T03:07:43.597Z,2.50
2022-10-17T03:10:10.492Z,2.20
2022-10-17T03:12:37.395Z,2.30
2022-10-17T03:15:04.682Z,2.10
2022-10-17T03:17:31.585Z,1.80
2022-10-17T03:19:58.858Z,2.72
2022-10-17T03:22:25.739Z,2.20
2022-10-17T03:24:52.629Z,2.45
2022-10-17T03:27:19.648Z,2.60
2022-10-17T03:29:46.551Z,2.15
2022-10-17T03:32:13.390Z,1.85
2022-10-17T03:34:40.244Z,2.22
2022-10-17T03:37:07.368Z,2.13
2022-10-17T03:39:34.204Z,2.10
2022-10-17T03:42:01.019Z,2.30
2022-10-17T03:44:27.893Z,2.80
2022-10-17T03:46:54.730Z,2.25
2022-10-17T03:49:21.644Z,2.78
2022-10-17T03:51:48.551Z,3.65
2022-10-17T03:54:15.494Z,2.70
2022-10-17T03:56:43.574Z,2.47
2022-10-17T03:59:14.545Z,2.50
2022-10-17T04:01:41.662Z,2.20
2022-10-17T04:04:09.018Z,2.65
2022-10-17T04:06:36.742Z,2.20
2022-10-17T04:09:04.263Z,2.30
2022-10-17T04:11:31.554Z,2.10
2022-10-17T04:13:59.800Z,3.00
2022-10-17T04:16:27.714Z,2.22
2022-10-17T04:18:56.661Z,2.70
2022-10-17T04:23:59.337Z,2.97
2022-10-17T04:26:27.298Z,2.95
2022-10-17T04:28:54.530Z,3.13
2022-10-17T04:31:21.729Z,2.78
2022-10-17T04:33:49.657Z,3.05
2022-10-17T04:36:19.273Z,3.72
2022-10-17T04:38:46.564Z,2.97
2022-10-17T04:41:16.605Z,2.85
2022-10-17T04:43:46.906Z,3.33
2022-10-17T04:46:17.094Z,3.38
2022-10-17T04:48:44.324Z,4.93
2022-10-17T04:51:20.750Z,4.40
2022-10-17T04:56:20.304Z,3.72
2022-10-17T04:58:47.889Z,6.75
2022-10-17T05:01:21.081Z,6.88
2022-10-17T05:03:48.550Z,4.50
2022-10-17T05:06:18.296Z,4.25
2022-10-17T05:08:46.030Z,4.43
2022-10-17T05:11:27.572Z,3.25
2022-10-17T05:13:56.674Z,3.53
2022-10-17T05:16:23.893Z,4.38
2022-10-17T05:18:53.070Z,3.85
2022-10-17T05:21:21.185Z,4.10
2022-10-17T05:23:48.174Z,4.03
2022-10-17T05:26:15.553Z,2.83
2022-10-17T05:28:42.710Z,3.08
2022-10-17T05:31:11.426Z,4.43
2022-10-17T05:33:39.861Z,3.20
2022-10-17T05:36:07.830Z,2.75
2022-10-17T05:38:35.247Z,3.50
2022-10-17T05:41:05.004Z,3.55
2022-10-17T05:43:33.146Z,3.30
2022-10-17T05:46:04.063Z,3.10
2022-10-17T05:48:31.753Z,3.17
2022-10-17T05:51:00.432Z,3.00
2022-10-17T05:53:30.526Z,6.18
2022-10-17T05:56:03.388Z,4.38
2022-10-17T06:01:17.912Z,2.92
2022-10-17T06:03:44.726Z,3.50
2022-10-17T06:06:13.379Z,2.90
2022-10-17T06:08:40.331Z,3.75
2022-10-17T06:11:09.967Z,3.05
2022-10-17T06:13:38.275Z,3.85
2022-10-17T06:16:05.744Z,2.25
2022-10-17T06:18:33.171Z,2.65
2022-10-17T06:21:06.091Z,2.53
2022-10-17T06:23:33.573Z,3.38
2022-10-17T06:26:01.577Z,3.20
2022-10-17T06:28:29.078Z,3.10
2022-10-17T06:30:55.963Z,2.15
2022-10-17T06:33:23.488Z,2.90
2022-10-17T06:35:54.976Z,2.10
2022-10-17T06:38:22.867Z,2.30
2022-10-17T06:40:49.838Z,2.42
2022-10-17T06:43:17.147Z,2.85
2022-10-17T06:45:46.842Z,2.17
2022-10-17T06:48:14.261Z,2.58
2022-10-17T06:50:41.124Z,1.77
2022-10-17T06:53:07.933Z,1.90
2022-10-17T06:55:34.816Z,1.95
2022-10-17T06:58:01.651Z,2.03
2022-10-17T07:00:28.573Z,1.88
2022-10-17T07:02:55.439Z,1.83
2022-10-17T07:05:22.280Z,1.88
2022-10-17T07:07:51.055Z,1.90
2022-10-17T07:10:18.733Z,3.05
2022-10-17T07:12:46.064Z,2.67
2022-10-17T07:15:13.255Z,4.85
2022-10-17T07:17:43.002Z,4.10
2022-10-17T07:20:10.394Z,3.83
2022-10-17T07:22:37.225Z,2.25
2022-10-17T07:25:04.469Z,2.55
2022-10-17T07:27:31.633Z,2.83
2022-10-17T07:29:59.058Z,2.28
2022-10-17T07:32:26.000Z,1.95
2022-10-17T07:34:52.866Z,2.45
2022-10-17T07:37:19.703Z,2.03
2022-10-17T07:39:46.579Z,2.08
2022-10-17T07:42:14.633Z,2.00
2022-10-17T07:44:41.759Z,2.67
2022-10-17T07:47:08.683Z,2.10
2022-10-17T07:49:35.589Z,1.60
2022-10-17T07:52:02.424Z,1.70
2022-10-17T07:54:29.330Z,2.35
2022-10-17T07:56:56.289Z,2.00
2022-10-17T07:59:24.468Z,3.17
2022-10-17T08:01:51.702Z,1.90
2022-10-17T08:04:18.781Z,2.08
2022-10-17T08:06:46.051Z,1.77
2022-10-17T08:09:13.319Z,1.73
2022-10-17T08:11:40.244Z,5.05
2022-10-17T08:14:07.263Z,2.40
2022-10-17T08:16:34.160Z,2.17
2022-10-17T08:19:01.728Z,1.67
2022-10-17T08:21:29.005Z,1.48
2022-10-17T08:23:56.118Z,1.52
2022-10-17T08:26:23.371Z,1.45
2022-10-17T08:28:50.337Z,1.77
2022-10-17T08:31:20.111Z,1.48
2022-10-17T08:33:48.297Z,2.60
2022-10-17T08:36:17.551Z,1.63
2022-10-17T08:38:47.997Z,1.90
2022-10-17T08:41:44.499Z,2.25
2022-10-17T08:44:11.375Z,2.33
2022-10-17T08:46:42.229Z,1.48
2022-10-17T08:49:27.442Z,1.70
2022-10-17T08:52:02.912Z,1.67
2022-10-17T08:54:47.100Z,1.42
2022-10-17T08:57:18.938Z,1.88
2022-10-17T08:59:52.191Z,1.70
2022-10-17T09:02:41.273Z,2.17
2022-10-17T09:05:26.385Z,1.40
2022-10-17T09:08:06.410Z,2.35
2022-10-17T09:11:02.591Z,1.95
2022-10-17T09:13:42.799Z,1.80
2022-10-17T09:16:12.359Z,2.13
2022-10-17T09:18:46.328Z,1.38
2022-10-17T09:21:19.095Z,1.60
2022-10-17T09:23:59.451Z,1.35
2022-10-17T09:26:36.557Z,2.10
2022-10-17T09:29:10.820Z,1.40
2022-10-17T09:31:47.400Z,1.52
2022-10-17T09:34:16.004Z,2.00
2022-10-17T09:36:44.111Z,2.17
2022-10-17T09:39:11.339Z,2.70
2022-10-17T09:41:47.583Z,1.80
2022-10-17T09:44:19.045Z,2.15
2022-10-17T09:47:30.218Z,1.80
2022-10-17T09:49:57.432Z,3.63
2022-10-17T09:52:50.916Z,1.85
2022-10-17T09:55:22.647Z,1.60
2022-10-17T09:57:56.882Z,1.77
2022-10-17T10:00:30.226Z,1.77
2022-10-17T10:03:22.867Z,2.05
2022-10-17T10:06:13.887Z,1.48
2022-10-17T10:09:05.049Z,1.35
2022-10-17T10:11:55.146Z,2.28
2022-10-17T10:14:23.507Z,1.17
2022-10-17T10:16:53.714Z,1.30
2022-10-17T10:19:26.501Z,1.60
2022-10-17T10:21:59.642Z,1.55
2022-10-17T10:24:30.851Z,1.80
2022-10-17T10:27:04.347Z,1.73
2022-10-17T10:29:33.175Z,2.65
2022-10-17T10:32:38.873Z,1.35
2022-10-17T10:35:25.776Z,1.58
2022-10-17T10:37:55.794Z,2.60
2022-10-17T10:40:25.611Z,1.98
2022-10-17T10:42:55.884Z,1.48
2022-10-17T10:48:27.933Z,1.92
2022-10-17T10:51:09.457Z,1.55
2022-10-17T10:53:46.142Z,1.42
2022-10-17T10:56:30.808Z,1.90
2022-10-17T10:59:09.618Z,1.98
2022-10-17T11:01:36.808Z,1.35
2022-10-17T11:04:26.916Z,1.50
2022-10-17T11:07:05.235Z,1.20
2022-10-17T11:09:55.433Z,1.90
2022-10-17T11:12:38.673Z,1.48
2022-10-17T11:15:25.464Z,1.60
2022-10-17T11:18:00.821Z,1.50
2022-10-17T11:20:34.372Z,2.05
2022-10-17T11:23:35.272Z,1.70
2022-10-17T11:26:06.944Z,2.00
2022-10-17T11:28:33.826Z,2.38
2022-10-17T11:31:03.385Z,1.70
2022-10-17T11:33:43.892Z,2.00
2022-10-17T11:36:11.520Z,2.00
2022-10-17T11:38:51.015Z,2.10
2022-10-17T11:41:26.834Z,2.33
2022-10-17T11:44:20.007Z,1.75
2022-10-17T11:46:51.774Z,1.70
2022-10-17T11:49:46.953Z,1.17
2022-10-17T11:52:51.407Z,1.30
2022-10-17T11:55:24.001Z,1.25
2022-10-17T11:57:50.858Z,1.42
2022-10-17T12:00:54.397Z,1.20
2022-10-17T12:03:30.206Z,1.67
2022-10-17T12:06:29.538Z,2.03
2022-10-17T12:09:05.340Z,1.10
2022-10-17T12:11:57.459Z,2.15
2022-10-17T12:14:43.791Z,1.73
2022-10-17T12:17:44.624Z,1.92
2022-10-17T12:20:27.376Z,1.20
2022-10-17T12:23:12.692Z,1.30
2022-10-17T12:26:04.718Z,1.15
2022-10-17T12:28:33.204Z,1.20
2022-10-17T12:31:05.884Z,0.87
2022-10-17T12:33:51.556Z,1.65
2022-10-17T12:36:27.554Z,1.15
2022-10-17T12:39:03.480Z,1.33
2022-10-17T12:41:39.174Z,1.02
2022-10-17T12:44:15.364Z,1.30
2022-10-17T12:46:43.377Z,1.40
2022-10-17T12:49:19.422Z,1.30
2022-10-17T12:52:18.468Z,2.00
2022-10-17T12:55:14.682Z,1.45
2022-10-17T12:58:18.876Z,1.60
2022-10-17T13:01:23.635Z,1.70
2022-10-17T13:03:48.624Z,1.55
2022-10-17T13:06:21.309Z,1.20
2022-10-17T13:08:56.141Z,1.80
2022-10-17T13:11:27.869Z,1.30
2022-10-17T13:13:58.060Z,1.48
2022-10-17T13:16:55.437Z,1.00
2022-10-17T13:19:25.230Z,0.85
2022-10-17T13:22:06.326Z,1.10
2022-10-17T13:24:38.335Z,1.25
2022-10-17T13:27:07.384Z,1.88
2022-10-17T13:29:34.764Z,1.20
2022-10-17T13:32:04.179Z,1.48
2022-10-17T13:34:32.876Z,1.85
2022-10-17T13:37:10.345Z,1.33
2022-10-17T13:39:55.681Z,1.92
2022-10-17T13:42:31.855Z,1.88
2022-10-17T13:44:59.660Z,2.13
2022-10-17T13:47:33.882Z,2.30
2022-10-17T13:50:01.033Z,1.90
2022-10-17T13:52:30.060Z,1.63
2022-10-17T13:55:08.784Z,1.63
2022-10-17T13:57:35.655Z,1.25
2022-10-17T14:00:11.749Z,1.55
2022-10-17T14:02:41.291Z,1.67
2022-10-17T14:05:18.178Z,1.33
2022-10-17T14:08:12.689Z,1.58
2022-10-17T14:10:43.080Z,1.65
2022-10-17T14:13:22.136Z,2.03
2022-10-17T14:15:49.429Z,2.53
2022-10-17T14:18:22.803Z,2.10
2022-10-17T14:23:42.615Z,1.63
2022-10-17T14:26:22.261Z,2.30
2022-10-17T14:29:06.203Z,2.00
2022-10-17T14:31:35.317Z,2.17
2022-10-17T14:34:04.491Z,2.50
2022-10-17T14:36:37.842Z,2.55
2022-10-17T14:39:11.827Z,2.10
2022-10-17T14:41:44.656Z,1.92
2022-10-17T14:44:31.739Z,2.10
2022-10-17T14:47:30.275Z,2.13
2022-10-17T14:50:03.453Z,2.45
2022-10-17T14:52:31.961Z,2.78
2022-10-17T14:55:11.827Z,2.88
2022-10-17T14:57:45.462Z,2.10
2022-10-17T15:00:17.921Z,1.83
2022-10-17T15:02:46.187Z,1.92
2022-10-17T15:05:14.216Z,1.48
2022-10-17T15:07:42.468Z,1.73
2022-10-17T15:10:23.343Z,2.22
2022-10-17T15:12:58.844Z,1.60
2022-10-17T15:15:28.780Z,2.00
2022-10-17T15:17:56.156Z,1.75
2022-10-17T15:20:26.465Z,3.10
2022-10-17T15:22:54.746Z,2.13
2022-10-17T15:25:22.573Z,2.85
2022-10-17T15:27:49.469Z,1.60
2022-10-17T15:30:26.022Z,2.30
2022-10-17T15:32:53.712Z,1.70
2022-10-17T15:35:21.623Z,1.73
2022-10-17T15:37:49.204Z,1.50
2022-10-17T15:40:21.545Z,1.58
2022-10-17T15:42:48.768Z,2.20
2022-10-17T15:45:17.632Z,1.88
2022-10-17T15:47:53.236Z,1.55
2022-10-17T15:50:21.795Z,1.17
2022-10-17T15:52:51.135Z,1.73
2022-10-17T15:55:18.644Z,1.42
2022-10-17T15:57:47.041Z,1.17
2022-10-17T16:00:24.368Z,1.50
2022-10-17T16:02:51.601Z,1.45
2022-10-17T16:05:23.532Z,1.40
2022-10-17T16:07:50.559Z,1.65
2022-10-17T16:10:18.303Z,1.35
2022-10-17T16:12:45.856Z,1.48
2022-10-17T16:15:17.508Z,2.17
2022-10-17T16:17:44.820Z,1.60
2022-10-17T16:20:13.273Z,1.83
2022-10-17T16:22:42.707Z,2.08
2022-10-17T16:25:27.133Z,1.40
2022-10-17T16:27:57.514Z,1.70
2022-10-17T16:30:28.373Z,1.63
2022-10-17T16:32:56.942Z,2.35
2022-10-17T16:35:27.046Z,1.90
2022-10-17T16:37:54.482Z,2.35
2022-10-17T16:40:21.390Z,2.40
2022-10-17T16:42:48.215Z,2.10
2022-10-17T16:45:20.217Z,2.13
2022-10-17T16:47:48.053Z,2.30
2022-10-17T16:50:15.188Z,1.77
2022-10-17T16:52:42.712Z,1.67
2022-10-17T16:55:10.073Z,2.22
2022-10-17T16:57:37.075Z,2.55
2022-10-17T17:00:06.315Z,1.90
2022-10-17T17:02:33.574Z,1.70
2022-10-17T17:05:00.715Z,1.90
2022-10-17T17:07:29.738Z,2.05
2022-10-17T17:09:57.039Z,1.83
2022-10-17T17:12:24.218Z,2.03
2022-10-17T17:14:51.454Z,1.85
2022-10-17T17:17:30.420Z,2.22
2022-10-17T17:20:04.602Z,1.77
2022-10-17T17:22:31.527Z,1.80
2022-10-17T17:24:58.362Z,2.53
2022-10-17T17:27:28.494Z,2.65
2022-10-17T17:29:55.583Z,3.08
2022-10-17T17:32:22.527Z,2.28
2022-10-17T17:34:49.782Z,2.78
2022-10-17T17:37:16.696Z,3.47
2022-10-17T17:39:43.981Z,3.10
2022-10-17T17:42:10.840Z,3.50
2022-10-17T17:44:38.090Z,2.78
2022-10-17T17:47:05.231Z,2.95
2022-10-17T17:49:32.036Z,2.47
2022-10-17T17:51:58.897Z,3.28
2022-10-17T17:54:25.792Z,3.65
2022-10-17T17:56:52.994Z,3.17
2022-10-17T17:59:19.852Z,3.95
2022-10-17T18:01:47.408Z,4.90
2022-10-17T18:04:16.401Z,4.20
2022-10-17T18:09:10.887Z,4.78
2022-10-17T18:11:38.622Z,9.60
2022-10-17T18:14:08.221Z,10.23
2022-10-17T18:16:36.888Z,6.05
2022-10-17T18:19:09.152Z,5.63
2022-10-17T18:21:37.360Z,5.35
2022-10-17T18:24:07.328Z,4.93
2022-10-17T18:26:34.477Z,4.88
2022-10-17T18:29:01.694Z,5.97
2022-10-17T18:31:32.035Z,5.13
2022-10-17T18:34:02.817Z,6.00
2022-10-17T18:36:31.502Z,5.68
2022-10-17T18:39:00.087Z,5.93
2022-10-17T18:41:27.643Z,5.00
2022-10-17T18:43:55.859Z,5.35
2022-10-17T18:46:29.519Z,3.83
2022-10-17T18:48:56.801Z,4.20
2022-10-17T18:51:25.081Z,3.85
2022-10-17T18:53:54.205Z,3.60
2022-10-17T18:56:22.385Z,3.90
2022-10-17T18:58:49.645Z,3.80
2022-10-17T19:01:21.745Z,2.95
2022-10-17T19:03:50.515Z,3.08
2022-10-17T19:06:19.948Z,2.75
2022-10-17T19:08:47.401Z,2.33
2022-10-17T19:11:24.238Z,2.25
2022-10-17T19:13:51.666Z,2.50
2022-10-17T19:16:24.886Z,3.08
2022-10-17T19:19:07.309Z,2.70
2022-10-17T19:21:34.750Z,2.08
2022-10-17T19:24:04.405Z,2.35
2022-10-17T19:26:33.681Z,2.30
2022-10-17T19:29:00.963Z,2.20
2022-10-17T19:31:31.510Z,2.38
2022-10-17T19:33:58.946Z,3.05
2022-10-17T19:36:30.751Z,3.10
2022-10-17T19:39:05.417Z,4.20
2022-10-17T19:41:33.039Z,4.72
2022-10-17T19:44:00.775Z,4.00
2022-10-17T19:46:29.414Z,3.88
2022-10-17T19:48:56.599Z,3.30
2022-10-17T19:51:24.959Z,3.30
2022-10-17T19:53:53.255Z,3.08
2022-10-17T19:56:21.506Z,3.25
2022-10-17T19:58:49.545Z,3.03
2022-10-17T20:01:22.559Z,3.15
2022-10-17T20:03:50.301Z,2.78
2022-10-17T20:06:17.691Z,3.05
2022-10-17T20:08:44.554Z,3.95
2022-10-17T20:11:16.878Z,2.67
2022-10-17T20:13:44.907Z,3.42
2022-10-17T20:16:21.459Z,3.10
2022-10-17T20:18:52.437Z,3.15
2022-10-17T20:21:23.038Z,2.97
2022-10-17T20:23:50.716Z,2.40
2022-10-17T20:29:19.500Z,2.42
2022-10-17T20:34:15.957Z,2.15
2022-10-17T20:36:43.576Z,2.70
2022-10-17T20:39:12.582Z,2.45
2022-10-17T20:44:07.436Z,2.60
2022-10-17T20:46:37.680Z,2.60
2022-10-17T20:49:08.168Z,2.97
2022-10-17T20:51:36.123Z,2.92
2022-10-17T20:54:03.750Z,2.03
2022-10-17T20:56:32.794Z,2.70
2022-10-17T21:01:30.390Z,3.03
2022-10-17T21:04:06.116Z,2.53
2022-10-17T21:06:43.089Z,3.00
2022-10-17T21:09:10.089Z,2.72
2022-10-17T21:11:36.964Z,2.42
2022-10-17T21:14:06.318Z,3.00
2022-10-17T21:16:35.726Z,2.40
2022-10-17T21:19:03.527Z,2.75
2022-10-17T21:21:36.225Z,2.47
2022-10-17T21:24:06.127Z,2.97
2022-10-17T21:26:35.299Z,2.70
2022-10-17T21:29:05.696Z,2.75
2022-10-17T21:31:38.297Z,2.60
2022-10-17T21:34:07.860Z,2.13
2022-10-17T21:36:34.919Z,3.60
2022-10-17T21:39:01.971Z,2.92
2022-10-17T21:41:29.841Z,2.83
2022-10-17T21:43:58.967Z,3.03
2022-10-17T21:46:26.842Z,2.63
2022-10-17T21:48:54.511Z,2.83
2022-10-17T21:51:23.455Z,3.10
2022-10-17T21:56:20.823Z,2.70
2022-10-17T21:58:48.568Z,2.90
2022-10-17T22:01:20.173Z,2.67
2022-10-17T22:03:49.780Z,3.10
2022-10-17T22:09:13.312Z,3.13
2022-10-17T22:11:40.749Z,3.05
2022-10-17T22:14:13.056Z,3.88
2022-10-17T22:16:40.412Z,3.58
2022-10-17T22:19:08.453Z,3.25
2022-10-17T22:21:36.733Z,3.08
2022-10-17T22:24:07.509Z,3.20
2022-10-17T22:26:36.405Z,3.70
2022-10-17T22:29:04.692Z,3.80
2022-10-17T22:31:31.732Z,4.03
2022-10-17T22:33:58.591Z,4.00
2022-10-17T22:36:25.614Z,4.53
2022-10-17T22:38:52.863Z,4.18
2022-10-17T22:41:20.114Z,3.78
2022-10-17T22:43:47.018Z,4.00
2022-10-17T22:46:16.222Z,4.10
2022-10-17T22:48:43.650Z,3.97
2022-10-17T22:51:11.340Z,3.88
2022-10-17T22:53:38.534Z,4.15
2022-10-17T22:56:12.294Z,4.32
2022-10-17T22:58:39.876Z,4.30
2022-10-17T23:01:08.808Z,5.05
2022-10-17T23:06:03.061Z,5.30
2022-10-17T23:08:30.225Z,5.75
2022-10-17T23:10:57.166Z,4.97
2022-10-17T23:13:24.417Z,6.18
2022-10-17T23:15:55.964Z,6.75
2022-10-17T23:18:24.532Z,7.13
2022-10-17T23:20:51.704Z,8.15
2022-10-17T23:23:19.517Z,7.88
2022-10-17T23:25:46.863Z,8.38
2022-10-17T23:28:14.171Z,8.38
2022-10-17T23:30:41.393Z,9.45
2022-10-17T23:33:08.671Z,8.90
2022-10-17T23:35:36.066Z,9.00
2022-10-17T23:38:03.670Z,10.43
2022-10-17T23:40:30.631Z,10.07
2022-10-17T23:42:57.441Z,9.95
2022-10-17T23:45:24.362Z,11.15
2022-10-17T23:47:51.259Z,10.98
2022-10-17T23:50:18.260Z,10.60
2022-10-17T23:52:45.226Z,10.90
2022-10-17T23:55:12.119Z,12.20
2022-10-17T23:57:39.012Z,11.93
